Time;durP1;ratioP1;P1;durP2;ratioP2;P2;SDS_P1;SDS_P2;PMS_P1;PMS_P2;Temp;Humidity;BMP_temperature;BMP_pressure;BME280_temperature;BME280_humidity;BME280_pressure;Samples;Min_cycle;Max_cycle;Signal;HPM_P1;HPM_P2
2021/03/14 00:01:03;;;;;;;4.70;1.30;;;8.20;1.00;;;;;;5071630;28;20249;-56
2021/03/14 00:03:30;;;;;;;2.27;1.23;;;8.30;1.00;;;;;;5071342;28;20456;-57
2021/03/14 00:05:56;;;;;;;1.57;0.90;;;8.30;1.00;;;;;;5079440;28;20456;-57
2021/03/14 00:08:24;;;;;;;2.17;0.87;;;8.30;1.00;;;;;;5092205;28;20482;-56
2021/03/14 00:10:53;;;;;;;3.77;0.90;;;8.30;1.00;;;;;;5077633;28;20496;-57
2021/03/14 00:13:22;;;;;;;1.40;1.00;;;8.30;1.00;;;;;;5070595;28;20453;-56
2021/03/14 00:15:47;;;;;;;1.40;1.20;;;8.30;1.00;;;;;;5071009;28;20441;-56
2021/03/14 00:18:15;;;;;;;2.43;1.00;;;8.30;1.00;;;;;;5071022;28;20438;-57
2021/03/14 00:20:40;;;;;;;3.10;0.93;;;8.20;1.00;;;;;;5069533;28;20223;-58
2021/03/14 00:23:06;;;;;;;5.07;1.43;;;8.30;1.00;;;;;;5063544;28;20516;-58
2021/03/14 00:25:32;;;;;;;3.10;1.30;;;8.30;1.00;;;;;;5071361;28;20262;-57
2021/03/14 00:27:58;;;;;;;4.57;2.00;;;8.10;1.00;;;;;;5066313;28;20537;-57
2021/03/14 00:30:25;;;;;;;4.07;1.10;;;8.20;1.00;;;;;;5071091;28;20218;-55
2021/03/14 00:32:51;;;;;;;1.30;1.13;;;8.10;1.00;;;;;;5066586;28;20179;-57
2021/03/14 00:35:18;;;;;;;1.63;1.00;;;8.10;1.00;;;;;;5071150;28;20926;-57
2021/03/14 00:37:44;;;;;;;3.10;1.00;;;8.10;1.00;;;;;;5066293;28;20235;-56
2021/03/14 00:40:11;;;;;;;3.07;1.40;;;8.30;1.00;;;;;;5070295;28;20421;-56
2021/03/14 00:42:36;;;;;;;2.30;1.13;;;8.20;1.00;;;;;;5070176;28;21017;-57
2021/03/14 00:45:07;;;;;;;4.17;1.60;;;8.20;1.00;;;;;;5068637;28;20433;-55
2021/03/14 00:47:34;;;;;;;4.60;1.40;;;8.20;1.00;;;;;;5068729;28;20206;-55
2021/03/14 00:50:00;;;;;;;3.73;1.10;;;8.30;1.00;;;;;;5067253;28;20469;-56
2021/03/14 00:52:26;;;;;;;3.73;1.20;;;8.30;1.00;;;;;;5067109;28;20491;-56
2021/03/14 00:54:51;;;;;;;8.63;1.40;;;8.30;1.00;;;;;;5066105;28;20230;-57
2021/03/14 00:57:17;;;;;;;1.83;1.10;;;8.30;1.00;;;;;;5067750;28;20195;-56
2021/03/14 00:59:42;;;;;;;6.47;1.60;;;8.30;1.00;;;;;;5069290;28;20648;-56
2021/03/14 01:02:08;;;;;;;2.00;1.20;;;8.30;1.00;;;;;;5066883;28;20195;-57
2021/03/14 01:04:33;;;;;;;1.77;1.13;;;8.30;1.00;;;;;;5069216;28;20176;-57
2021/03/14 01:06:59;;;;;;;3.10;1.73;;;8.30;1.00;;;;;;5069789;28;20241;-57
2021/03/14 01:09:25;;;;;;;3.73;1.40;;;8.40;1.00;;;;;;5069681;28;20255;-58
2021/03/14 01:11:50;;;;;;;4.03;1.20;;;8.40;1.00;;;;;;5069109;28;20667;-56
2021/03/14 01:14:16;;;;;;;2.50;1.23;;;8.50;1.00;;;;;;5066269;28;20187;-57
2021/03/14 01:16:41;;;;;;;4.70;2.30;;;8.50;1.00;;;;;;5069122;28;20187;-56
2021/03/14 01:19:07;;;;;;;4.40;1.50;;;8.40;1.00;;;;;;5069374;28;20242;-56
2021/03/14 01:21:32;;;;;;;2.43;1.80;;;8.30;1.00;;;;;;5067521;28;20199;-56
2021/03/14 01:23:58;;;;;;;3.87;1.40;;;8.30;1.00;;;;;;5069344;28;20211;-57
2021/03/14 01:26:24;;;;;;;4.63;1.50;;;8.20;1.00;;;;;;5065599;28;20256;-56
2021/03/14 01:28:50;;;;;;;2.90;1.50;;;8.20;1.00;;;;;;5068845;28;20199;-56
2021/03/14 01:31:15;;;;;;;2.73;1.20;;;8.20;1.00;;;;;;5069573;28;20187;-56
2021/03/14 01:33:41;;;;;;;4.10;1.40;;;8.10;1.00;;;;;;5072424;28;20359;-56
2021/03/14 01:36:07;;;;;;;2.60;1.63;;;8.00;1.00;;;;;;5070095;28;20502;-58
2021/03/14 01:38:33;;;;;;;3.60;1.30;;;8.00;1.00;;;;;;5070091;28;20446;-56
2021/03/14 01:40:59;;;;;;;2.13;1.43;;;7.90;1.00;;;;;;5068950;28;20453;-56
2021/03/14 01:43:25;;;;;;;4.57;2.10;;;7.90;1.00;;;;;;5069046;28;20480;-56
2021/03/14 01:45:50;;;;;;;5.63;1.87;;;7.90;1.00;;;;;;5069520;28;20623;-57
2021/03/14 01:48:21;;;;;;;8.20;1.70;;;8.00;1.00;;;;;;5067310;28;20207;-57
2021/03/14 01:50:47;;;;;;;1.53;1.27;;;8.00;1.00;;;;;;5068829;28;20172;-56
2021/03/14 01:53:13;;;;;;;2.63;1.40;;;8.10;1.00;;;;;;5072548;28;20981;-56
2021/03/14 01:55:39;;;;;;;3.10;1.30;;;8.00;1.00;;;;;;5071231;28;20456;-58
2021/03/14 01:58:04;;;;;;;2.73;2.47;;;7.90;1.00;;;;;;5071862;28;20202;-58
2021/03/14 02:00:31;;;;;;;2.23;1.37;;;7.90;1.00;;;;;;5071315;28;20188;-57
2021/03/14 02:02:56;;;;;;;1.90;1.30;;;7.90;1.00;;;;;;5070575;28;20211;-56
2021/03/14 02:05:22;;;;;;;4.87;1.50;;;8.00;1.00;;;;;;5070809;28;20830;-56
2021/03/14 02:07:53;;;;;;;2.80;1.30;;;8.00;1.00;;;;;;5071326;28;20195;-57
2021/03/14 02:10:30;;;;;;;2.60;1.17;;;8.00;1.00;;;;;;5073453;28;20267;-57
2021/03/14 02:13:02;;;;;;;3.87;1.47;;;8.00;1.00;;;;;;5070118;28;20447;-56
2021/03/14 02:15:29;;;;;;;1.60;1.43;;;8.00;1.00;;;;;;5070769;28;20450;-55
2021/03/14 02:17:57;;;;;;;2.80;1.27;;;7.90;1.00;;;;;;5072540;28;20685;-57
2021/03/14 02:20:26;;;;;;;4.63;1.30;;;8.00;1.00;;;;;;5071449;28;20454;-56
2021/03/14 02:23:03;;;;;;;4.40;1.70;;;7.90;1.00;;;;;;5064331;28;20974;-62
2021/03/14 02:25:37;;;;;;;3.80;0.90;;;7.80;1.00;;;;;;5069520;28;20964;-56
2021/03/14 02:28:04;;;;;;;1.83;1.27;;;7.90;1.00;;;;;;5059826;28;20473;-56
2021/03/14 02:30:31;;;;;;;2.60;1.43;;;8.00;1.00;;;;;;5068196;28;20554;-56
2021/03/14 02:32:58;;;;;;;3.67;1.73;;;8.00;1.00;;;;;;5072323;28;20428;-58
2021/03/14 02:35:25;;;;;;;3.00;1.43;;;7.90;1.00;;;;;;5070098;28;20475;-57
2021/03/14 02:37:52;;;;;;;7.83;1.40;;;7.90;1.00;;;;;;5071556;28;20456;-57
2021/03/14 02:40:19;;;;;;;2.63;1.20;;;7.90;1.00;;;;;;5076506;28;20437;-57
2021/03/14 02:42:46;;;;;;;2.77;1.30;;;7.90;1.00;;;;;;5070338;28;20514;-55
2021/03/14 02:45:12;;;;;;;5.13;1.50;;;7.90;1.00;;;;;;5071761;28;20463;-57
2021/03/14 02:47:39;;;;;;;2.60;1.10;;;7.80;1.00;;;;;;5075953;28;20869;-55
2021/03/14 02:50:15;;;;;;;2.10;1.10;;;7.70;1.00;;;;;;5068342;28;20523;-57
2021/03/14 02:52:41;;;;;;;3.60;1.40;;;7.70;1.00;;;;;;5069205;28;20449;-56
2021/03/14 02:55:09;;;;;;;1.90;1.17;;;7.70;1.00;;;;;;5069823;28;20434;-56
2021/03/14 02:57:35;;;;;;;2.43;1.37;;;7.80;1.00;;;;;;5070572;28;20473;-56
2021/03/14 03:00:03;;;;;;;3.03;0.90;;;7.60;1.00;;;;;;5070494;28;21031;-56
2021/03/14 03:02:29;;;;;;;4.13;1.60;;;7.70;1.00;;;;;;5070594;28;20541;-58
2021/03/14 03:04:55;;;;;;;2.10;1.20;;;7.60;1.00;;;;;;5067874;28;21046;-57
2021/03/14 03:07:22;;;;;;;2.30;1.50;;;7.70;1.00;;;;;;5063344;28;20457;-56
2021/03/14 03:09:51;;;;;;;2.30;1.10;;;7.70;1.00;;;;;;5070526;28;20465;-57
2021/03/14 03:12:22;;;;;;;3.10;1.63;;;7.70;1.00;;;;;;5070420;28;21174;-56
2021/03/14 03:14:49;;;;;;;5.20;1.40;;;7.70;1.00;;;;;;5070629;28;20452;-56
2021/03/14 03:17:15;;;;;;;1.97;1.47;;;7.70;1.00;;;;;;5070511;28;20442;-57
2021/03/14 03:19:42;;;;;;;3.30;1.13;;;7.70;1.00;;;;;;5068251;28;20540;-57
2021/03/14 03:22:08;;;;;;;2.57;1.10;;;7.60;1.00;;;;;;5069194;28;20532;-56
2021/03/14 03:24:34;;;;;;;4.50;1.97;;;7.60;1.00;;;;;;5067332;28;21085;-56
2021/03/14 03:26:59;;;;;;;4.73;1.90;;;7.60;1.00;;;;;;5069157;28;20336;-56
2021/03/14 03:29:25;;;;;;;3.27;1.43;;;7.60;1.00;;;;;;5069957;28;20218;-56
2021/03/14 03:31:51;;;;;;;1.93;1.40;;;7.70;1.00;;;;;;5069577;28;20187;-56
2021/03/14 03:34:17;;;;;;;2.77;1.80;;;7.60;1.00;;;;;;5066146;28;20442;-56
2021/03/14 03:36:42;;;;;;;1.50;0.90;;;7.60;1.00;;;;;;5070598;28;20653;-56
2021/03/14 03:39:11;;;;;;;3.37;1.27;;;7.60;1.00;;;;;;5072741;28;20210;-56
2021/03/14 03:41:46;;;;;;;4.33;1.77;;;7.50;1.00;;;;;;5072171;28;20528;-57
2021/03/14 03:44:13;;;;;;;3.37;1.60;;;7.50;1.00;;;;;;5070863;28;20763;-55
2021/03/14 03:46:41;;;;;;;3.43;1.63;;;7.40;1.00;;;;;;5070547;28;20496;-57
2021/03/14 03:49:07;;;;;;;9.90;1.53;;;7.50;1.00;;;;;;5067698;28;20528;-55
2021/03/14 03:51:34;;;;;;;2.00;1.10;;;7.50;1.00;;;;;;5068032;28;20541;-56
2021/03/14 03:54:03;;;;;;;1.97;1.20;;;7.50;1.00;;;;;;5067163;28;20461;-55
2021/03/14 03:56:29;;;;;;;3.47;1.70;;;7.60;1.00;;;;;;5066429;28;20453;-57
2021/03/14 03:58:55;;;;;;;2.87;1.20;;;7.60;1.00;;;;;;5068327;28;20587;-56
2021/03/14 04:01:21;;;;;;;2.67;1.13;;;7.50;1.00;;;;;;5068097;28;20818;-56
2021/03/14 04:03:49;;;;;;;3.03;1.60;;;7.40;1.00;;;;;;5066358;28;20450;-56
2021/03/14 04:06:16;;;;;;;2.07;1.30;;;7.50;1.00;;;;;;5070041;28;20446;-56
2021/03/14 04:08:43;;;;;;;1.13;0.97;;;7.60;1.00;;;;;;5069359;28;20466;-55
2021/03/14 04:11:13;;;;;;;3.00;1.40;;;7.50;1.00;;;;;;5051854;28;20482;-56
2021/03/14 04:13:41;;;;;;;1.97;1.30;;;7.50;1.00;;;;;;5069186;28;20795;-57
2021/03/14 04:16:07;;;;;;;4.37;1.37;;;7.50;1.00;;;;;;5067628;28;20446;-55
2021/03/14 04:18:34;;;;;;;2.20;1.50;;;7.40;1.00;;;;;;5066247;28;20449;-55
2021/03/14 04:21:03;;;;;;;2.10;1.60;;;7.30;1.00;;;;;;5067908;28;20943;-57
2021/03/14 04:23:31;;;;;;;3.50;1.40;;;7.40;1.00;;;;;;5058219;28;20813;-57
2021/03/14 04:25:58;;;;;;;2.03;1.33;;;7.30;1.00;;;;;;5063299;28;20442;-56
2021/03/14 04:28:27;;;;;;;6.33;1.43;;;7.30;1.00;;;;;;5067146;28;20469;-56
2021/03/14 04:30:55;;;;;;;9.00;1.60;;;7.30;1.00;;;;;;5065598;28;20476;-55
2021/03/14 04:33:22;;;;;;;1.67;1.57;;;7.40;1.00;;;;;;5065157;28;20812;-55
2021/03/14 04:35:50;;;;;;;4.07;1.40;;;7.40;1.00;;;;;;5069379;28;20952;-56
2021/03/14 04:38:20;;;;;;;2.80;1.90;;;7.30;1.00;;;;;;5066974;28;20456;-57
2021/03/14 04:40:47;;;;;;;1.07;1.07;;;7.40;1.00;;;;;;5068268;28;20488;-56
2021/03/14 04:43:13;;;;;;;5.57;1.87;;;7.30;1.00;;;;;;5066044;28;20527;-56
2021/03/14 04:45:39;;;;;;;2.07;1.30;;;7.20;1.00;;;;;;5069481;28;20449;-57
2021/03/14 04:48:05;;;;;;;5.10;2.03;;;7.20;1.00;;;;;;5066957;28;20448;-57
2021/03/14 04:50:31;;;;;;;3.63;1.67;;;7.10;1.00;;;;;;5066349;28;20441;-58
2021/03/14 04:52:59;;;;;;;5.37;1.90;;;7.10;1.00;;;;;;5065876;28;20231;-56
2021/03/14 04:55:28;;;;;;;5.10;1.83;;;7.00;1.00;;;;;;5068431;28;20453;-57
2021/03/14 04:57:58;;;;;;;2.20;1.37;;;6.90;1.00;;;;;;5066558;28;20488;-57
2021/03/14 05:00:24;;;;;;;3.70;1.40;;;7.00;1.00;;;;;;5068354;28;20544;-57
2021/03/14 05:02:55;;;;;;;1.70;1.60;;;7.10;1.00;;;;;;5067878;28;20487;-57
2021/03/14 05:05:21;;;;;;;3.63;1.97;;;7.00;1.00;;;;;;5067431;28;20480;-56
2021/03/14 05:07:49;;;;;;;2.77;1.30;;;7.10;1.00;;;;;;5066135;28;20458;-57
2021/03/14 05:10:21;;;;;;;2.00;1.40;;;7.20;1.00;;;;;;5064064;28;20483;-57
2021/03/14 05:12:48;;;;;;;3.20;1.23;;;7.20;1.00;;;;;;5068130;28;20479;-55
2021/03/14 05:15:17;;;;;;;3.83;1.80;;;7.10;1.00;;;;;;5065768;28;20437;-56
2021/03/14 05:17:44;;;;;;;4.67;1.67;;;7.20;1.00;;;;;;5066628;28;20433;-57
2021/03/14 05:20:15;;;;;;;1.70;1.40;;;7.00;1.00;;;;;;5068458;28;20450;-54
2021/03/14 05:22:42;;;;;;;7.67;2.00;;;7.00;1.00;;;;;;5065080;28;20448;-58
2021/03/14 05:25:09;;;;;;;2.50;1.33;;;6.90;1.00;;;;;;5068625;28;20442;-56
2021/03/14 05:27:36;;;;;;;1.67;1.50;;;6.90;1.00;;;;;;5067586;28;20442;-56
2021/03/14 05:30:03;;;;;;;4.50;1.60;;;6.80;1.00;;;;;;5065509;28;20531;-56
2021/03/14 05:32:31;;;;;;;3.60;1.60;;;6.80;1.00;;;;;;5065769;28;20548;-57
2021/03/14 05:34:56;;;;;;;2.53;1.30;;;6.60;1.00;;;;;;5068359;28;20487;-55
2021/03/14 05:37:22;;;;;;;4.27;1.70;;;6.80;1.00;;;;;;5064038;28;20449;-56
2021/03/14 05:39:48;;;;;;;2.00;1.80;;;6.80;1.00;;;;;;5067864;28;20854;-58
2021/03/14 05:42:15;;;;;;;3.40;1.70;;;6.80;1.00;;;;;;5068715;28;20442;-57
2021/03/14 05:44:41;;;;;;;2.97;1.73;;;6.70;1.00;;;;;;5068056;28;20191;-56
2021/03/14 05:47:07;;;;;;;3.40;1.87;;;6.80;1.00;;;;;;5068855;28;20445;-57
2021/03/14 05:49:33;;;;;;;2.67;1.67;;;6.80;1.00;;;;;;5066532;28;20506;-55
2021/03/14 05:51:59;;;;;;;2.47;1.73;;;6.80;1.00;;;;;;5063775;28;20523;-55
2021/03/14 05:54:25;;;;;;;3.43;1.57;;;6.80;1.00;;;;;;5067727;28;20190;-56
2021/03/14 05:56:51;;;;;;;2.90;1.80;;;6.80;1.00;;;;;;5067782;28;20188;-57
2021/03/14 05:59:18;;;;;;;1.73;1.60;;;6.70;1.00;;;;;;5068004;28;20457;-58
2021/03/14 06:01:50;;;;;;;6.33;1.70;;;6.70;1.00;;;;;;5065481;28;20186;-56
2021/03/14 06:04:16;;;;;;;2.77;1.73;;;6.70;1.00;;;;;;5067446;28;20792;-57
2021/03/14 06:06:42;;;;;;;2.80;1.93;;;6.90;1.00;;;;;;5067565;28;20440;-54
2021/03/14 06:09:08;;;;;;;3.10;2.00;;;6.80;1.00;;;;;;5064527;28;20561;-57
2021/03/14 06:11:34;;;;;;;8.40;2.57;;;7.00;1.00;;;;;;5067270;28;20233;-57
2021/03/14 06:14:00;;;;;;;2.40;2.00;;;7.20;1.00;;;;;;5068004;28;20672;-57
2021/03/14 06:16:26;;;;;;;2.53;1.10;;;7.10;1.00;;;;;;5068201;28;20528;-57
2021/03/14 06:18:53;;;;;;;2.33;1.77;;;7.10;1.00;;;;;;5069343;28;20532;-56
2021/03/14 06:21:23;;;;;;;2.60;1.93;;;7.20;1.00;;;;;;5065251;28;20184;-57
2021/03/14 06:24:03;;;;;;;7.23;2.23;;;9.30;1.00;;;;;;5060225;28;21052;-58
2021/03/14 06:26:41;;;;;;;3.60;1.90;;;7.10;1.00;;;;;;5059908;28;20556;-55
2021/03/14 06:29:23;;;;;;;3.60;1.60;;;7.20;1.00;;;;;;5065746;28;20522;-56
2021/03/14 06:31:58;;;;;;;2.73;1.80;;;7.20;1.00;;;;;;5064226;28;20453;-55
2021/03/14 06:34:28;;;;;;;2.10;1.87;;;7.20;1.00;;;;;;5066805;28;20802;-56
2021/03/14 06:36:55;;;;;;;2.57;2.00;;;7.20;1.00;;;;;;5066903;28;20449;-57
2021/03/14 06:39:31;;;;;;;2.40;1.83;;;7.30;1.00;;;;;;5069049;28;20526;-57
2021/03/14 06:41:57;;;;;;;2.67;1.57;;;7.30;1.00;;;;;;5071122;28;20448;-57
2021/03/14 06:44:26;;;;;;;2.30;1.43;;;7.40;1.00;;;;;;5070240;28;20464;-58
2021/03/14 06:46:52;;;;;;;2.40;1.47;;;7.50;1.00;;;;;;5070568;28;20187;-57
2021/03/14 06:49:21;;;;;;;3.20;2.43;;;7.60;1.00;;;;;;5072069;28;20552;-56
2021/03/14 06:51:50;;;;;;;3.80;2.13;;;7.70;1.00;;;;;;5070202;28;20524;-56
2021/03/14 06:54:28;;;;;;;3.20;1.70;;;7.70;1.00;;;;;;5072603;28;20568;-57
2021/03/14 06:57:13;;;;;;;4.80;2.40;;;7.70;1.00;;;;;;5068477;28;20445;-56
2021/03/14 06:59:48;;;;;;;1.97;1.87;;;7.70;1.00;;;;;;5076270;28;20548;-57
2021/03/14 07:02:16;;;;;;;2.33;2.13;;;7.80;1.00;;;;;;5075045;28;20440;-56
2021/03/14 07:04:54;;;;;;;2.60;2.03;;;7.80;1.00;;;;;;5069347;28;20457;-57
2021/03/14 07:07:25;;;;;;;6.33;2.20;;;7.80;1.00;;;;;;5070360;28;20441;-55
2021/03/14 07:09:57;;;;;;;2.37;2.10;;;7.90;1.00;;;;;;5069522;28;20530;-57
2021/03/14 07:12:24;;;;;;;2.63;1.70;;;8.00;1.00;;;;;;5070203;28;20441;-56
2021/03/14 07:14:50;;;;;;;4.13;2.17;;;8.00;1.00;;;;;;5069795;28;20469;-57
2021/03/14 07:17:33;;;;;;;2.87;1.60;;;7.90;1.00;;;;;;5074616;28;20559;-56
2021/03/14 07:20:15;;;;;;;2.80;2.10;;;7.80;1.00;;;;;;5068949;28;20456;-56
2021/03/14 07:22:41;;;;;;;4.07;2.03;;;8.00;1.00;;;;;;5068223;28;20448;-57
2021/03/14 07:25:20;;;;;;;3.93;2.57;;;8.20;1.00;;;;;;5068890;28;20477;-59
2021/03/14 07:27:47;;;;;;;2.40;2.03;;;8.20;1.00;;;;;;5069725;28;20288;-58
2021/03/14 07:30:14;;;;;;;2.47;1.70;;;8.30;1.00;;;;;;5070160;28;20461;-58
2021/03/14 07:32:40;;;;;;;3.70;2.20;;;8.30;1.00;;;;;;5069588;28;20449;-56
2021/03/14 07:35:07;;;;;;;2.03;1.93;;;8.40;1.00;;;;;;5067231;28;20429;-56
2021/03/14 07:37:33;;;;;;;5.20;2.73;;;8.30;1.00;;;;;;5071345;28;20433;-56
2021/03/14 07:39:59;;;;;;;2.43;2.07;;;8.20;1.00;;;;;;5068679;28;21886;-57
2021/03/14 07:42:25;;;;;;;2.50;2.30;;;8.40;1.00;;;;;;5068975;28;20198;-55
2021/03/14 07:44:50;;;;;;;4.13;2.00;;;8.40;1.00;;;;;;5070658;28;20195;-58
2021/03/14 07:47:18;;;;;;;3.10;1.80;;;8.40;1.00;;;;;;5068946;28;20457;-57
2021/03/14 07:49:49;;;;;;;2.53;2.33;;;8.50;1.00;;;;;;5068728;28;20203;-55
2021/03/14 07:52:23;;;;;;;3.33;2.30;;;8.40;1.00;;;;;;5067676;28;20452;-57
2021/03/14 07:54:53;;;;;;;7.20;2.70;;;8.40;1.00;;;;;;5068584;28;21246;-56
2021/03/14 07:57:22;;;;;;;4.13;1.90;;;8.60;1.00;;;;;;5072584;28;20452;-56
2021/03/14 07:59:48;;;;;;;3.93;2.30;;;8.50;1.00;;;;;;5074486;28;20859;-56
2021/03/14 08:02:17;;;;;;;2.53;2.30;;;8.50;1.00;;;;;;5071140;28;20520;-57
2021/03/14 08:04:50;;;;;;;2.50;1.93;;;8.30;1.00;;;;;;5076141;28;20554;-56
2021/03/14 08:07:36;;;;;;;4.03;2.20;;;8.40;1.00;;;;;;5070417;28;20467;-56
2021/03/14 08:10:04;;;;;;;2.30;2.10;;;8.30;1.00;;;;;;5086040;28;20519;-58
2021/03/14 08:12:38;;;;;;;2.43;2.10;;;8.20;1.00;;;;;;5080238;28;20450;-57
2021/03/14 08:15:25;;;;;;;2.77;2.10;;;8.00;1.00;;;;;;5070230;28;20943;-57
2021/03/14 08:17:55;;;;;;;3.30;2.60;;;7.80;1.00;;;;;;5066682;28;20460;-56
2021/03/14 08:20:46;;;;;;;2.73;2.30;;;7.60;1.00;;;;;;5071459;28;20440;-55
2021/03/14 08:23:19;;;;;;;3.70;2.17;;;7.80;1.00;;;;;;5070909;28;20542;-56
2021/03/14 08:25:48;;;;;;;2.27;2.07;;;7.80;1.00;;;;;;5070565;28;20469;-56
2021/03/14 08:28:29;;;;;;;2.70;1.87;;;8.00;1.00;;;;;;5071149;28;20434;-58
2021/03/14 08:31:02;;;;;;;5.97;2.10;;;8.00;1.00;;;;;;5070259;28;20433;-57
2021/03/14 08:33:32;;;;;;;3.80;1.60;;;8.00;1.00;;;;;;5071228;28;20445;-56
2021/03/14 08:36:01;;;;;;;3.10;2.07;;;8.10;1.00;;;;;;5069858;28;20469;-56
2021/03/14 08:38:42;;;;;;;3.13;2.50;;;8.10;1.00;;;;;;5071019;28;20429;-57
2021/03/14 08:41:24;;;;;;;4.10;2.40;;;8.20;1.00;;;;;;5069762;28;20491;-56
2021/03/14 08:43:57;;;;;;;3.97;1.77;;;8.20;1.00;;;;;;5070547;28;20465;-56
2021/03/14 08:46:49;;;;;;;4.77;2.20;;;8.20;1.00;;;;;;5065631;28;20461;-57
2021/03/14 08:49:15;;;;;;;5.07;2.33;;;8.30;1.00;;;;;;5047391;28;20468;-56
2021/03/14 08:51:41;;;;;;;4.03;2.50;;;8.50;1.00;;;;;;5070806;28;20483;-57
2021/03/14 08:54:07;;;;;;;3.10;2.30;;;8.60;1.00;;;;;;5069796;28;20434;-55
2021/03/14 08:56:34;;;;;;;4.97;2.40;;;8.30;1.00;;;;;;5071015;28;20435;-57
2021/03/14 08:59:13;;;;;;;5.87;2.77;;;8.40;1.00;;;;;;5069986;28;20951;-59
2021/03/14 09:01:39;;;;;;;2.77;2.57;;;8.30;1.00;;;;;;5069669;28;20532;-57
2021/03/14 09:04:19;;;;;;;5.47;2.27;;;8.30;1.00;;;;;;5069645;28;20533;-56
2021/03/14 09:06:45;;;;;;;6.30;2.93;;;8.20;1.00;;;;;;5070083;28;20436;-58
2021/03/14 09:09:14;;;;;;;3.10;2.80;;;7.80;1.00;;;;;;5074875;28;20821;-57
2021/03/14 09:11:42;;;;;;;3.27;2.77;;;7.60;1.00;;;;;;5088023;28;20450;-57
2021/03/14 09:14:28;;;;;;;3.70;3.17;;;7.50;1.00;;;;;;5073572;28;20472;-55
2021/03/14 09:16:59;;;;;;;6.03;3.73;;;7.40;1.00;;;;;;5070490;28;20425;-55
2021/03/14 09:19:35;;;;;;;4.37;3.60;;;7.40;1.00;;;;;;5070770;28;20487;-56
2021/03/14 09:22:07;;;;;;;5.00;3.07;;;7.50;1.00;;;;;;5069548;28;20490;-55
2021/03/14 09:24:35;;;;;;;2.90;2.60;;;7.60;1.00;;;;;;5069663;28;20460;-55
2021/03/14 09:27:04;;;;;;;3.90;3.60;;;7.40;1.00;;;;;;5070298;28;20433;-55
2021/03/14 09:29:42;;;;;;;7.77;3.20;;;7.30;1.00;;;;;;5069180;28;20471;-55
2021/03/14 09:32:42;;;;;;;5.90;3.70;;;7.50;1.00;;;;;;5075759;28;20430;-56
2021/03/14 09:35:16;;;;;;;3.63;3.10;;;7.50;1.00;;;;;;5070410;28;20440;-55
2021/03/14 09:37:44;;;;;;;3.57;3.00;;;7.40;1.00;;;;;;5069942;28;20930;-55
2021/03/14 09:40:15;;;;;;;5.40;3.37;;;7.40;1.00;;;;;;5069353;28;20444;-56
2021/03/14 09:42:47;;;;;;;4.80;3.50;;;7.50;1.00;;;;;;5070262;28;20445;-57
2021/03/14 09:45:21;;;;;;;4.50;3.77;;;7.30;1.00;;;;;;5078177;28;20507;-55
2021/03/14 09:48:03;;;;;;;5.20;4.07;;;7.30;1.00;;;;;;5069728;28;20428;-56
2021/03/14 09:50:29;;;;;;;3.70;3.33;;;7.20;1.00;;;;;;5070089;28;20487;-55
2021/03/14 09:53:02;;;;;;;4.00;3.50;;;7.20;1.00;;;;;;5069908;28;20434;-56
2021/03/14 09:55:38;;;;;;;4.13;3.60;;;7.40;1.00;;;;;;5069882;28;20437;-56
2021/03/14 09:58:07;;;;;;;5.17;3.10;;;7.50;1.00;;;;;;5081044;28;20441;-57
2021/03/14 10:00:33;;;;;;;5.37;2.87;;;7.60;1.00;;;;;;5069862;28;20445;-56
2021/03/14 10:03:04;;;;;;;3.60;3.30;;;7.60;1.00;;;;;;5070281;28;20468;-55
2021/03/14 10:05:41;;;;;;;5.30;3.13;;;7.50;1.00;;;;;;5077500;28;20641;-56
2021/03/14 10:08:08;;;;;;;4.10;3.20;;;7.70;1.00;;;;;;5077804;28;20456;-57
2021/03/14 10:10:36;;;;;;;4.50;2.80;;;7.70;1.00;;;;;;5068748;28;20608;-56
2021/03/14 10:13:07;;;;;;;3.43;3.13;;;7.90;1.00;;;;;;5070199;28;20442;-56
2021/03/14 10:15:34;;;;;;;5.63;3.40;;;7.80;1.00;;;;;;5073324;28;20442;-57
2021/03/14 10:18:01;;;;;;;4.83;3.93;;;7.60;1.00;;;;;;5071713;28;20445;-55
2021/03/14 10:20:26;;;;;;;3.87;3.33;;;7.50;1.00;;;;;;5073427;28;20436;-55
2021/03/14 10:23:23;;;;;;;4.23;3.27;;;7.50;1.00;;;;;;5070899;28;20454;-55
2021/03/14 10:25:48;;;;;;;3.43;3.00;;;7.50;1.00;;;;;;5072353;28;20194;-55
2021/03/14 10:28:19;;;;;;;7.23;4.77;;;7.50;1.00;;;;;;5087812;28;20437;-56
2021/03/14 10:30:47;;;;;;;5.07;4.23;;;7.70;1.00;;;;;;5092476;28;20171;-54
2021/03/14 10:33:15;;;;;;;3.40;3.10;;;7.90;1.00;;;;;;5080712;28;20948;-59
2021/03/14 10:35:43;;;;;;;4.00;3.70;;;7.90;1.00;;;;;;5072646;28;20558;-56
2021/03/14 10:38:29;;;;;;;5.40;3.90;;;8.30;1.00;;;;;;5075511;28;20520;-54
2021/03/14 10:41:14;;;;;;;7.90;3.70;;;10.30;1.00;;;;;;5074676;28;20535;-54
2021/03/14 10:44:01;;;;;;;4.70;3.50;;;8.30;1.00;;;;;;5073487;28;20441;-57
2021/03/14 10:46:49;;;;;;;4.53;3.53;;;8.40;1.00;;;;;;5072902;28;20938;-55
2021/03/14 10:49:23;;;;;;;5.70;3.60;;;8.30;1.00;;;;;;5081669;28;20472;-56
2021/03/14 10:51:51;;;;;;;4.47;3.53;;;8.30;1.00;;;;;;5092353;28;20435;-55
2021/03/14 10:54:18;;;;;;;7.23;3.87;;;8.40;1.00;;;;;;5072239;28;20437;-56
2021/03/14 10:56:48;;;;;;;3.87;3.47;;;8.60;1.00;;;;;;5087638;28;21010;-55
2021/03/14 10:59:30;;;;;;;5.70;3.33;;;8.40;1.00;;;;;;5093482;28;20993;-54
2021/03/14 11:02:24;;;;;;;3.43;2.93;;;8.30;1.00;;;;;;5074473;28;20451;-54
2021/03/14 11:04:54;;;;;;;4.97;3.77;;;8.50;1.00;;;;;;5088455;28;20791;-56
2021/03/14 11:07:27;;;;;;;6.00;3.40;;;8.50;1.00;;;;;;5087229;28;20556;-55
2021/03/14 11:10:08;;;;;;;7.90;3.40;;;8.50;1.00;;;;;;5092593;28;20521;-55
2021/03/14 11:12:42;;;;;;;6.60;5.20;;;8.40;1.00;;;;;;5080562;28;20456;-58
2021/03/14 11:15:27;;;;;;;6.70;4.90;;;8.20;1.00;;;;;;5070650;28;20447;-56
2021/03/14 11:17:53;;;;;;;5.37;4.17;;;8.20;1.00;;;;;;5071219;28;20602;-55
2021/03/14 11:20:21;;;;;;;4.57;4.17;;;9.50;1.00;;;;;;5072336;28;20438;-54
2021/03/14 11:22:51;;;;;;;4.50;4.00;;;8.40;1.00;;;;;;5089160;28;20537;-55
2021/03/14 11:25:17;;;;;;;5.83;4.70;;;8.50;1.00;;;;;;5081265;28;20851;-55
2021/03/14 11:27:44;;;;;;;9.20;5.00;;;8.40;1.00;;;;;;5080471;28;20458;-56
2021/03/14 11:30:11;;;;;;;5.60;4.37;;;8.80;1.00;;;;;;5073019;28;20477;-55
2021/03/14 11:32:36;;;;;;;6.13;4.83;;;8.80;1.00;;;;;;5063332;28;20433;-56
2021/03/14 11:35:03;;;;;;;7.73;4.63;;;8.90;1.00;;;;;;5069846;28;20446;-55
2021/03/14 11:37:28;;;;;;;6.77;4.53;;;8.50;1.00;;;;;;5083407;28;20625;-56
2021/03/14 11:39:54;;;;;;;6.70;5.00;;;8.60;1.00;;;;;;5079175;28;20488;-55
2021/03/14 11:42:20;;;;;;;7.53;5.80;;;8.50;1.00;;;;;;5061962;28;20575;-54
2021/03/14 11:44:46;;;;;;;11.20;5.10;;;8.40;1.00;;;;;;5069894;28;20196;-55
2021/03/14 11:47:12;;;;;;;5.73;5.23;;;8.50;1.00;;;;;;5071669;28;20434;-56
2021/03/14 11:49:37;;;;;;;6.10;5.10;;;8.60;1.00;;;;;;5083968;28;20214;-55
2021/03/14 11:52:03;;;;;;;6.37;4.60;;;8.70;1.00;;;;;;5074626;28;20180;-55
2021/03/14 11:54:28;;;;;;;7.53;5.17;;;8.70;1.00;;;;;;5077037;28;20683;-57
2021/03/14 11:56:54;;;;;;;5.57;4.40;;;8.50;1.00;;;;;;5066201;28;20246;-55
2021/03/14 11:59:20;;;;;;;5.30;4.87;;;8.40;1.00;;;;;;5070112;28;20553;-55
2021/03/14 12:01:48;;;;;;;5.90;4.70;;;8.30;1.00;;;;;;5069763;28;20321;-55
2021/03/14 12:04:14;;;;;;;5.43;4.30;;;8.30;1.00;;;;;;5070568;28;20183;-55
2021/03/14 12:06:40;;;;;;;5.43;4.93;;;8.40;1.00;;;;;;5066555;28;20545;-55
2021/03/14 12:09:06;;;;;;;5.97;3.87;;;8.60;1.00;;;;;;5067837;28;20265;-55
2021/03/14 12:11:34;;;;;;;4.30;3.60;;;8.50;1.00;;;;;;5067129;28;20200;-56
2021/03/14 12:14:00;;;;;;;5.10;3.87;;;8.60;1.00;;;;;;5069213;28;20981;-55
2021/03/14 12:16:25;;;;;;;5.23;3.50;;;8.80;1.00;;;;;;5068938;28;20437;-57
2021/03/14 12:18:51;;;;;;;4.43;3.13;;;8.90;1.00;;;;;;5066190;28;20453;-57
2021/03/14 12:21:16;;;;;;;4.43;3.40;;;8.90;1.00;;;;;;5069356;28;20202;-56
2021/03/14 12:23:42;;;;;;;3.87;3.30;;;9.00;1.00;;;;;;5069422;28;20224;-56
2021/03/14 12:26:08;;;;;;;3.23;3.00;;;9.00;1.00;;;;;;5069644;28;20563;-54
2021/03/14 12:28:34;;;;;;;5.00;3.50;;;8.90;1.00;;;;;;5064098;28;20648;-55
2021/03/14 12:31:00;;;;;;;3.83;3.43;;;8.70;1.00;;;;;;5070113;28;20214;-54
2021/03/14 12:33:26;;;;;;;3.73;3.30;;;8.90;1.00;;;;;;5069384;28;20446;-55
2021/03/14 12:35:52;;;;;;;4.70;4.20;;;;;;;;;;5067412;28;20279;-57
2021/03/14 12:38:19;;;;;;;3.90;3.03;;;9.10;1.00;;;;;;5070062;28;20651;-56
2021/03/14 12:40:46;;;;;;;4.40;3.10;;;9.10;1.00;;;;;;5069473;28;20447;-57
2021/03/14 12:43:16;;;;;;;8.37;4.20;;;9.20;1.00;;;;;;5074460;28;20810;-56
2021/03/14 12:45:43;;;;;;;5.67;4.40;;;9.20;1.00;;;;;;5068204;28;20536;-55
2021/03/14 12:48:09;;;;;;;6.87;4.80;;;9.30;1.00;;;;;;5071520;28;20449;-57
2021/03/14 12:50:35;;;;;;;5.97;4.57;;;9.30;1.00;;;;;;5067157;28;20986;-57
2021/03/14 12:53:00;;;;;;;6.67;4.97;;;9.10;1.00;;;;;;5070000;28;20776;-55
2021/03/14 12:55:27;;;;;;;5.60;3.80;;;9.20;1.00;;;;;;5061208;28;20503;-56
2021/03/14 12:57:53;;;;;;;7.93;4.70;;;9.40;1.00;;;;;;5059142;28;20179;-58
2021/03/14 13:00:20;;;;;;;8.47;4.50;;;9.40;1.00;;;;;;5070249;28;20442;-57
2021/03/14 13:02:46;;;;;;;4.60;4.20;;;9.40;1.00;;;;;;5069276;28;20446;-55
2021/03/14 13:05:12;;;;;;;4.57;4.03;;;9.40;1.00;;;;;;5068167;28;20450;-57
2021/03/14 13:07:38;;;;;;;8.87;4.70;;;;;;;;;;5068763;28;20848;-55
2021/03/14 13:10:07;;;;;;;5.33;4.83;;;9.40;1.00;;;;;;5070434;28;20472;-56
2021/03/14 13:12:33;;;;;;;7.33;5.00;;;9.50;1.00;;;;;;5070312;28;20874;-57
2021/03/14 13:14:58;;;;;;;5.50;4.50;;;9.40;1.00;;;;;;5070028;28;20551;-55
2021/03/14 13:17:24;;;;;;;8.13;5.30;;;9.60;1.00;;;;;;5068136;28;20534;-56